Time;durP1;ratioP1;P1;durP2;ratioP2;P2;SDS_P1;SDS_P2;PMS_P1;PMS_P2;Temp;Humidity;BMP_temperature;BMP_pressure;BME280_temperature;BME280_humidity;BME280_pressure;Samples;Min_cycle;Max_cycle;Signal;HPM_P1;HPM_P2
2022/06/19 00:02:10;;;;;;;;;;;17.50;99.90;;;;;;5114062;28;20048;-69
2022/06/19 00:04:36;;;;;;;;;;;17.00;99.90;;;;;;5113901;28;19916;-69
2022/06/19 00:07:02;;;;;;;;;;;17.50;99.90;;;;;;5113650;28;20264;-68
2022/06/19 00:09:27;;;;;;;;;;;17.50;99.90;;;;;;5114117;28;19911;-69
2022/06/19 00:11:54;;;;;;;;;;;17.50;99.90;;;;;;5113950;28;19928;-68
2022/06/19 00:14:20;;;;;;;;;;;17.50;99.90;;;;;;5114005;28;19918;-68
2022/06/19 00:16:45;;;;;;;;;;;17.50;99.90;;;;;;5113661;28;19916;-68
2022/06/19 00:19:11;;;;;;;;;;;17.50;99.90;;;;;;5113754;28;19912;-69
2022/06/19 00:21:36;;;;;;;;;;;17.50;99.90;;;;;;5095160;28;19912;-68
2022/06/19 00:24:02;;;;;;;;;;;17.50;99.90;;;;;;5113601;28;19978;-68
2022/06/19 00:26:27;;;;;;;;;;;17.50;99.90;;;;;;5113453;28;19954;-69
2022/06/19 00:28:53;;;;;;;;;;;17.50;99.90;;;;;;5113341;28;19941;-69
2022/06/19 00:31:18;;;;;;;;;;;17.40;99.90;;;;;;5113269;28;19931;-68
2022/06/19 00:33:44;;;;;;;;;;;17.50;99.90;;;;;;5113342;28;19972;-69
2022/06/19 00:36:10;;;;;;;;;;;17.40;99.90;;;;;;5113694;28;19912;-69
2022/06/19 00:38:35;;;;;;;;;;;17.30;99.90;;;;;;5113208;28;20212;-68
2022/06/19 00:41:01;;;;;;;;;;;17.40;99.90;;;;;;5113974;28;20337;-68
2022/06/19 00:43:27;;;;;;;;;;;17.40;99.90;;;;;;5113232;28;19908;-68
2022/06/19 00:45:53;;;;;;;;;;;17.40;99.90;;;;;;5113730;28;19961;-69
2022/06/19 00:48:22;;;;;;;;;;;17.40;99.90;;;;;;5113075;28;19991;-68
2022/06/19 00:50:48;;;;;;;;;;;17.50;99.90;;;;;;5112903;28;19920;-68
2022/06/19 00:53:19;;;;;;;;;;;17.40;99.90;;;;;;5113393;28;19912;-69
2022/06/19 00:55:46;;;;;;;;;;;17.30;99.90;;;;;;5113546;28;19912;-69
2022/06/19 00:58:14;;;;;;;;;;;17.30;99.90;;;;;;5113131;28;19912;-69
2022/06/19 01:00:40;;;;;;;;;;;17.30;99.90;;;;;;5113292;28;20266;-68
2022/06/19 01:03:11;;;;;;;;;;;17.30;99.90;;;;;;5112808;28;19961;-69
2022/06/19 01:05:38;;;;;;;;;;;17.30;99.90;;;;;;5113332;28;19973;-69
2022/06/19 01:08:04;;;;;;;;;;;17.30;99.90;;;;;;5112815;28;19957;-69
2022/06/19 01:10:31;;;;;;;;;;;17.20;99.90;;;;;;5113041;28;19955;-69
2022/06/19 01:12:57;;;;;;;;;;;17.30;99.90;;;;;;5112603;28;20010;-68
2022/06/19 01:15:23;;;;;;;;;;;17.20;99.90;;;;;;5112932;28;19968;-68
2022/06/19 01:17:51;;;;;;;;;;;17.30;99.90;;;;;;5112456;28;19912;-68
2022/06/19 01:20:17;;;;;;;;;;;17.20;99.90;;;;;;5112474;28;20288;-69
2022/06/19 01:22:42;;;;;;;;;;;17.20;99.90;;;;;;5112358;28;19969;-69
2022/06/19 01:25:10;;;;;;;;;;;17.30;99.90;;;;;;5112606;28;19912;-68
2022/06/19 01:30:34;;;;;;;;;;;17.20;99.90;;;;;;5112380;28;19926;-69
2022/06/19 01:33:01;;;;;;;;;;;17.30;99.90;;;;;;5112155;28;19916;-68
2022/06/19 01:35:31;;;;;;;;;;;17.20;99.90;;;;;;5112611;28;19908;-68
2022/06/19 01:37:57;;;;;;;;;;;17.30;99.90;;;;;;5093832;28;19920;-68
2022/06/19 01:40:24;;;;;;;;;;;17.20;99.90;;;;;;5112596;28;20377;-68
2022/06/19 01:42:50;;;;;;;;;;;17.30;99.90;;;;;;5112054;28;19926;-67
2022/06/19 01:45:16;;;;;;;;;;;17.20;99.90;;;;;;5112479;28;19911;-68
2022/06/19 01:47:42;;;;;;;;;;;17.20;99.90;;;;;;5112083;28;19916;-68
2022/06/19 01:50:12;;;;;;;;;;;17.20;99.90;;;;;;5112430;28;19994;-68
2022/06/19 01:52:38;;;;;;;;;;;17.20;99.90;;;;;;5112104;28;19927;-68
2022/06/19 01:55:11;;;;;;;;;;;17.20;99.90;;;;;;5093444;28;19909;-68
2022/06/19 01:57:40;;;;;;;;;;;17.20;99.90;;;;;;5111933;28;19923;-68
2022/06/19 02:00:07;;;;;;;;;;;17.30;99.90;;;;;;5112059;28;19915;-68
2022/06/19 02:02:33;;;;;;;;;;;17.20;99.90;;;;;;5111912;28;19916;-69
2022/06/19 02:04:59;;;;;;;;;;;17.20;99.90;;;;;;5093581;28;19908;-68
2022/06/19 02:07:27;;;;;;;;;;;17.20;99.90;;;;;;5093577;28;19916;-69
2022/06/19 02:09:54;;;;;;;;;;;17.20;99.90;;;;;;5111883;28;19999;-69
2022/06/19 02:12:20;;;;;;;;;;;17.20;99.90;;;;;;5111660;28;20034;-69
2022/06/19 02:14:46;;;;;;;;;;;17.20;99.90;;;;;;5093550;28;20150;-68
2022/06/19 02:17:26;;;;;;;;;;;17.30;99.90;;;;;;5111763;28;20355;-69
2022/06/19 02:19:52;;;;;;;;;;;17.40;99.90;;;;;;5111840;28;19908;-69
2022/06/19 02:22:18;;;;;;;;;;;17.40;99.90;;;;;;5112200;28;19998;-69
2022/06/19 02:24:44;;;;;;;;;;;17.50;99.90;;;;;;5111937;28;19915;-69
2022/06/19 02:27:09;;;;;;;;;;;17.50;99.90;;;;;;5111766;28;20295;-68
2022/06/19 02:29:36;;;;;;;;;;;17.60;99.90;;;;;;5111545;28;19915;-68
2022/06/19 02:32:02;;;;;;;;;;;17.50;99.90;;;;;;5114043;28;19923;-68
2022/06/19 02:34:37;;;;;;;;;;;17.60;99.90;;;;;;5097291;28;19915;-69
2022/06/19 02:37:04;;;;;;;;;;;17.60;99.90;;;;;;5115981;28;19919;-69
2022/06/19 02:39:45;;;;;;;;;;;17.60;99.90;;;;;;5115849;28;20498;-68
2022/06/19 02:42:20;;;;;;;;;;;17.60;99.90;;;;;;5115532;28;19915;-69
2022/06/19 02:44:50;;;;;;;;;;;17.70;99.90;;;;;;5115478;28;20077;-68
2022/06/19 02:47:16;;;;;;;;;;;17.70;99.90;;;;;;5115609;28;20347;-69
2022/06/19 02:49:41;;;;;;;;;;;17.70;99.90;;;;;;5115549;28;19951;-68
2022/06/19 02:52:08;;;;;;;;;;;17.70;99.90;;;;;;5097092;28;19924;-68
2022/06/19 02:54:33;;;;;;;;;;;17.80;99.90;;;;;;5115398;28;19919;-69
2022/06/19 02:56:59;;;;;;;;;;;17.80;99.90;;;;;;5115459;28;19912;-68
2022/06/19 02:59:24;;;;;;;;;;;17.80;99.90;;;;;;5115308;28;19951;-68
2022/06/19 03:01:50;;;;;;;;;;;17.80;99.90;;;;;;5115297;28;19916;-68
2022/06/19 03:04:25;;;;;;;;;;;17.90;99.90;;;;;;5114987;28;19984;-68
2022/06/19 03:06:51;;;;;;;;;;;17.90;99.90;;;;;;5115249;28;20364;-69
2022/06/19 03:09:17;;;;;;;;;;;17.90;99.90;;;;;;5115092;28;19935;-68
2022/06/19 03:11:42;;;;;;;;;;;18.00;99.90;;;;;;5096657;28;20375;-68
2022/06/19 03:14:08;;;;;;;;;;;18.00;99.90;;;;;;5096345;28;19923;-68
2022/06/19 03:16:33;;;;;;;;;;;18.00;99.90;;;;;;5115011;28;19923;-68
2022/06/19 03:18:59;;;;;;;;;;;18.00;99.90;;;;;;5114922;28;19912;-68
2022/06/19 03:21:25;;;;;;;;;;;18.10;99.90;;;;;;5114928;28;19912;-68
2022/06/19 03:23:50;;;;;;;;;;;18.10;99.90;;;;;;5114852;28;19973;-69
2022/06/19 03:26:16;;;;;;;;;;;18.20;99.90;;;;;;5114664;28;19915;-68
2022/06/19 03:28:41;;;;;;;;;;;18.20;99.90;;;;;;5114948;28;19918;-69
2022/06/19 03:31:07;;;;;;;;;;;18.20;99.90;;;;;;5096065;28;19931;-68
2022/06/19 03:33:32;;;;;;;;;;;18.20;99.90;;;;;;5114893;28;19943;-68
2022/06/19 03:35:58;;;;;;;;;;;18.30;99.90;;;;;;5114944;28;19983;-68
2022/06/19 03:38:23;;;;;;;;;;;18.40;99.90;;;;;;5114450;28;19923;-68
2022/06/19 03:40:49;;;;;;;;;;;18.40;99.90;;;;;;5114865;28;20018;-68
2022/06/19 03:43:14;;;;;;;;;;;18.50;99.90;;;;;;5114342;28;20309;-68
2022/06/19 03:45:40;;;;;;;;;;;18.50;99.90;;;;;;5114885;28;19912;-68
2022/06/19 03:48:06;;;;;;;;;;;18.60;99.90;;;;;;5096051;28;19977;-69
2022/06/19 03:50:31;;;;;;;;;;;18.60;99.90;;;;;;5114871;28;19912;-68
2022/06/19 03:52:57;;;;;;;;;;;18.70;99.90;;;;;;5114696;28;19919;-68
2022/06/19 03:55:22;;;;;;;;;;;18.70;99.90;;;;;;5114725;28;20287;-68
2022/06/19 03:57:48;;;;;;;;;;;18.90;99.90;;;;;;5114515;28;20277;-68
2022/06/19 04:00:15;;;;;;;;;;;18.90;99.90;;;;;;5114420;28;19984;-68
2022/06/19 04:02:41;;;;;;;;;;;19.00;99.90;;;;;;5114263;28;19912;-69
2022/06/19 04:05:07;;;;;;;;;;;19.00;99.90;;;;;;5114237;28;19922;-69
2022/06/19 04:07:33;;;;;;;;;;;19.00;99.90;;;;;;5114276;28;19923;-69
2022/06/19 04:09:59;;;;;;;;;;;19.10;99.90;;;;;;5114040;28;20347;-69
2022/06/19 04:12:24;;;;;;;;;;;19.10;99.90;;;;;;5113904;28;19988;-69
2022/06/19 04:14:51;;;;;;;;;;;19.20;99.90;;;;;;5113773;28;19912;-69
2022/06/19 04:17:16;;;;;;;;;;;19.20;99.90;;;;;;5114008;28;20262;-69
2022/06/19 04:19:42;;;;;;;;;;;19.30;99.90;;;;;;5113937;28;19908;-69
2022/06/19 04:22:07;;;;;;;;;;;19.40;99.90;;;;;;5113723;28;20399;-69
2022/06/19 04:24:33;;;;;;;;;;;19.40;99.90;;;;;;5113578;28;19967;-69
2022/06/19 04:27:02;;;;;;;;;;;19.50;99.90;;;;;;5113492;28;19916;-69
2022/06/19 04:29:28;;;;;;;;;;;19.60;99.90;;;;;;5095214;28;19911;-69
2022/06/19 04:31:55;;;;;;;;;;;19.70;99.90;;;;;;5113412;28;19977;-69
2022/06/19 04:34:21;;;;;;;;;;;19.70;99.90;;;;;;5113704;28;20305;-69
2022/06/19 04:36:47;;;;;;;;;;;19.80;99.90;;;;;;5113726;28;19912;-69
2022/06/19 04:39:12;;;;;;;;;;;19.80;99.90;;;;;;5113776;28;20287;-69
2022/06/19 04:41:39;;;;;;;;;;;20.00;99.90;;;;;;5113464;28;19911;-69
2022/06/19 04:44:06;;;;;;;;;;;20.10;99.90;;;;;;5113551;28;19917;-69
2022/06/19 04:46:32;;;;;;;;;;;20.10;99.90;;;;;;5113773;28;20389;-69
2022/06/19 04:48:57;;;;;;;;;;;20.20;99.90;;;;;;5113455;28;19947;-69
2022/06/19 04:51:24;;;;;;;;;;;20.40;99.90;;;;;;5113619;28;19916;-69
2022/06/19 04:53:50;;;;;;;;;;;20.50;99.90;;;;;;5112357;28;19908;-69
2022/06/19 04:56:16;;;;;;;;;;;20.50;99.90;;;;;;5113258;28;19918;-69
2022/06/19 04:58:42;;;;;;;;;;;20.60;99.90;;;;;;5113494;28;19908;-69
2022/06/19 05:01:27;;;;;;;;;;;20.70;99.90;;;;;;5113062;28;20731;-69
2022/06/19 05:03:54;;;;;;;;;;;20.80;99.90;;;;;;5112468;28;19998;-69
2022/06/19 05:06:20;;;;;;;;;;;20.90;99.90;;;;;;5113051;28;20007;-69
2022/06/19 05:08:45;;;;;;;;;;;20.90;99.90;;;;;;5113122;28;19908;-69
2022/06/19 05:11:11;;;;;;;;;;;21.00;99.90;;;;;;5112813;28;19938;-69
2022/06/19 05:13:37;;;;;;;;;;;21.10;99.90;;;;;;5112876;28;19908;-69
2022/06/19 05:16:04;;;;;;;;;;;21.20;99.90;;;;;;5112891;28;19919;-69
2022/06/19 05:18:30;;;;;;;;;;;21.30;99.90;;;;;;5113029;28;19908;-69
2022/06/19 05:20:56;;;;;;;;;;;21.50;99.90;;;;;;5113291;28;20285;-69
2022/06/19 05:23:22;;;;;;;;;;;21.60;99.90;;;;;;5112406;28;19995;-69
2022/06/19 05:25:47;;;;;;;;;;;21.70;99.90;;;;;;5112981;28;19946;-69
2022/06/19 05:28:13;;;;;;;;;;;21.70;99.90;;;;;;5112515;28;20367;-69
2022/06/19 05:30:38;;;;;;;;;;;21.70;99.90;;;;;;5112487;28;20006;-69
2022/06/19 05:33:04;;;;;;;;;;;22.20;99.90;;;;;;5112292;28;19923;-69
2022/06/19 05:35:29;;;;;;;;;;;21.90;99.90;;;;;;5112742;28;19916;-68
2022/06/19 05:37:54;;;;;;;;;;;22.00;99.90;;;;;;5112244;28;19968;-69
2022/06/19 05:40:20;;;;;;;;;;;22.00;99.90;;;;;;5112617;28;19911;-69
2022/06/19 05:42:46;;;;;;;;;;;22.10;99.90;;;;;;5112446;28;19922;-69
2022/06/19 05:45:12;;;;;;;;;;;22.20;99.90;;;;;;5112695;28;20008;-67
2022/06/19 05:47:37;;;;;;;;;;;22.30;99.90;;;;;;5112027;28;19951;-68
2022/06/19 05:50:03;;;;;;;;;;;22.40;99.90;;;;;;5112411;28;20006;-68
2022/06/19 05:52:28;;;;;;;;;;;22.40;99.90;;;;;;5112133;28;19916;-69
2022/06/19 05:54:54;;;;;;;;;;;22.40;99.90;;;;;;5112244;28;19951;-69
2022/06/19 05:57:20;;;;;;;;;;;22.60;99.90;;;;;;5112207;28;19919;-68
2022/06/19 05:59:45;;;;;;;;;;;22.60;99.90;;;;;;5112177;28;19981;-69
2022/06/19 06:02:14;;;;;;;;;;;22.70;99.60;;;;;;5111896;28;19912;-68
2022/06/19 06:04:40;;;;;;;;;;;22.80;99.20;;;;;;5112202;28;20360;-68
2022/06/19 06:07:07;;;;;;;;;;;22.90;98.30;;;;;;5111887;28;19912;-67
2022/06/19 06:09:33;;;;;;;;;;;22.90;97.90;;;;;;5112051;28;19965;-68
2022/06/19 06:11:59;;;;;;;;;;;22.90;98.40;;;;;;5111751;28;19916;-74
2022/06/19 06:14:24;;;;;;;;;;;23.00;97.80;;;;;;5111850;28;20408;-72
2022/06/19 06:16:50;;;;;;;;;;;23.00;98.20;;;;;;5111779;28;20346;-73
2022/06/19 06:19:15;;;;;;;;;;;23.10;98.20;;;;;;5111891;28;20410;-73
2022/06/19 06:21:42;;;;;;;;;;;23.10;97.80;;;;;;5111822;28;19995;-74
2022/06/19 06:24:07;;;;;;;;;;;23.20;98.00;;;;;;5111638;28;20390;-74
2022/06/19 06:26:33;;;;;;;;;;;23.20;97.50;;;;;;5093515;28;19912;-70
2022/06/19 06:28:59;;;;;;;;;;;23.20;97.70;;;;;;5093331;28;20292;-70
2022/06/19 06:31:24;;;;;;;;;;;23.30;97.80;;;;;;5111658;28;20027;-71
2022/06/19 06:33:50;;;;;;;;;;;23.30;97.30;;;;;;5111673;28;19943;-68
2022/06/19 06:36:15;;;;;;;;;;;23.30;97.80;;;;;;5111752;28;19923;-70
2022/06/19 06:38:41;;;;;;;;;;;23.40;97.30;;;;;;5111476;28;19914;-71
2022/06/19 06:41:08;;;;;;;;;;;23.50;97.50;;;;;;5111694;28;20014;-71
2022/06/19 06:43:37;;;;;;;;;;;23.60;97.10;;;;;;5111451;28;19907;-71
2022/06/19 06:46:07;;;;;;;;;;;23.60;97.00;;;;;;5111869;28;20394;-71
2022/06/19 06:48:32;;;;;;;;;;;23.60;97.00;;;;;;5111348;28;19977;-71
2022/06/19 06:50:58;;;;;;;;;;;23.70;96.50;;;;;;5111633;28;19919;-71
2022/06/19 06:53:23;;;;;;;;;;;23.80;96.40;;;;;;5093090;28;19912;-71
2022/06/19 06:55:49;;;;;;;;;;;23.80;96.10;;;;;;5111225;28;19916;-70
2022/06/19 06:58:14;;;;;;;;;;;23.90;96.10;;;;;;5111229;28;19915;-70
2022/06/19 07:00:42;;;;;;;;;;;23.90;95.50;;;;;;5111687;28;20264;-70
2022/06/19 07:03:09;;;;;;;;;;;23.90;95.60;;;;;;5111123;28;19916;-70
2022/06/19 07:05:34;;;;;;;;;;;23.90;96.00;;;;;;5111799;28;20252;-71
2022/06/19 07:08:00;;;;;;;;;;;24.00;94.90;;;;;;5092926;28;19923;-71
2022/06/19 07:10:26;;;;;;;;;;;24.10;95.20;;;;;;5111740;28;20033;-71
2022/06/19 07:12:51;;;;;;;;;;;24.20;95.40;;;;;;5111189;28;19912;-69
2022/06/19 07:15:17;;;;;;;;;;;24.30;94.90;;;;;;5111636;28;19923;-72
2022/06/19 07:17:42;;;;;;;;;;;24.40;95.70;;;;;;5112910;28;19957;-71
2022/06/19 07:20:08;;;;;;;;;;;24.60;95.60;;;;;;5115207;28;19915;-71
2022/06/19 07:22:33;;;;;;;;;;;24.80;93.60;;;;;;5114981;28;19992;-71
2022/06/19 07:24:59;;;;;;;;;;;24.80;93.70;;;;;;5115068;28;19912;-71
2022/06/19 07:27:24;;;;;;;;;;;24.80;93.70;;;;;;5115003;28;20321;-71
2022/06/19 07:29:50;;;;;;;;;;;24.80;93.40;;;;;;5114929;28;19916;-73
2022/06/19 07:32:16;;;;;;;;;;;24.80;94.10;;;;;;5115156;28;20347;-73
2022/06/19 07:34:42;;;;;;;;;;;25.00;94.40;;;;;;5114999;28;19915;-73
2022/06/19 07:37:09;;;;;;;;;;;25.20;92.20;;;;;;5114874;28;20262;-73
2022/06/19 07:39:35;;;;;;;;;;;25.20;93.00;;;;;;5114913;28;19911;-73
2022/06/19 07:42:00;;;;;;;;;;;25.30;93.30;;;;;;5114753;28;19912;-72
2022/06/19 07:44:26;;;;;;;;;;;25.40;93.10;;;;;;5114641;28;19919;-73
2022/06/19 07:52:21;;;;;;;;;;;26.00;92.30;;;;;;5114497;28;19939;-74
2022/06/19 07:54:47;;;;;;;;;;;26.20;92.20;;;;;;5114356;28;19923;-72
2022/06/19 07:57:12;;;;;;;;;;;26.30;91.50;;;;;;5114162;28;19912;-73
2022/06/19 07:59:38;;;;;;;;;;;26.40;91.30;;;;;;5114064;28;19912;-72
2022/06/19 08:02:03;;;;;;;;;;;26.40;90.10;;;;;;5114161;28;20387;-72
2022/06/19 08:04:29;;;;;;;;;;;26.50;87.90;;;;;;5095671;28;19912;-72
2022/06/19 08:06:54;;;;;;;;;;;26.50;87.60;;;;;;5113921;28;19923;-72
2022/06/19 08:09:20;;;;;;;;;;;26.50;88.20;;;;;;5113933;28;20352;-72
2022/06/19 08:11:45;;;;;;;;;;;26.50;88.10;;;;;;5113944;28;19915;-72
2022/06/19 08:14:11;;;;;;;;;;;26.70;87.90;;;;;;5113853;28;20343;-72
2022/06/19 08:16:36;;;;;;;;;;;26.90;87.50;;;;;;5095380;28;20015;-72
2022/06/19 08:19:02;;;;;;;;;;;27.00;87.00;;;;;;5095282;28;19912;-72
2022/06/19 08:21:27;;;;;;;;;;;27.10;87.40;;;;;;5113689;28;19983;-72
2022/06/19 08:23:53;;;;;;;;;;;27.20;85.80;;;;;;5095113;28;20003;-71
2022/06/19 08:26:19;;;;;;;;;;;27.00;84.60;;;;;;5113495;28;20359;-73
2022/06/19 08:29:17;;;;;;;;;;;27.10;84.20;;;;;;5112258;28;19957;-72
2022/06/19 08:31:35;;;;;;;;;;;27.40;83.80;;;;;;5110881;28;19928;-72
2022/06/19 08:34:01;;;;;;;;;;;27.60;81.60;;;;;;5113359;28;19933;-72
2022/06/19 08:36:27;;;;;;;;;;;27.90;82.20;;;;;;5095250;28;20254;-72
2022/06/19 08:38:55;;;;;;;;;;;28.20;81.60;;;;;;5113460;28;19912;-72
2022/06/19 08:41:40;;;;;;;;;;;28.40;80.80;;;;;;5095184;28;19920;-72
2022/06/19 08:44:20;;;;;;;;;;;28.40;81.00;;;;;;5113309;28;19911;-72
2022/06/19 08:47:04;;;;;;;;;;;28.50;81.20;;;;;;5113325;28;19912;-72
2022/06/19 08:49:36;;;;;;;;;;;28.70;80.40;;;;;;5113319;28;19912;-72
2022/06/19 08:52:04;;;;;;;;;;;29.10;79.80;;;;;;5094845;28;19916;-72
2022/06/19 08:54:34;;;;;;;;;;;29.30;77.20;;;;;;5113198;28;19960;-72
2022/06/19 08:56:59;;;;;;;;;;;29.40;77.10;;;;;;5113404;28;19912;-72
2022/06/19 08:59:35;;;;;;;;;;;29.50;76.80;;;;;;5094592;28;19918;-72
2022/06/19 09:02:14;;;;;;;;;;;29.80;75.10;;;;;;5094824;28;19988;-72
2022/06/19 09:08:03;;;;;;;;;;;30.00;74.10;;;;;;5112831;28;19976;-71
2022/06/19 09:10:40;;;;;;;;;;;30.00;72.90;;;;;;5113010;28;19912;-72
2022/06/19 09:13:29;;;;;;;;;;;29.70;72.80;;;;;;5112751;28;19965;-71
2022/06/19 09:15:57;;;;;;;;;;;29.50;72.60;;;;;;5101726;28;19922;-71
2022/06/19 09:18:29;;;;;;;;;;;29.20;72.80;;;;;;5112500;28;19961;-72
2022/06/19 09:21:06;;;;;;;;;;;29.30;73.60;;;;;;5112961;28;19916;-71
2022/06/19 09:23:50;;;;;;;;;;;29.50;74.10;;;;;;5112406;28;20007;-73
2022/06/19 09:26:26;;;;;;;;;;;30.00;72.50;;;;;;5094135;28;19916;-71
2022/06/19 09:29:03;;;;;;;;;;;30.40;70.50;;;;;;5112213;28;19961;-72
2022/06/19 09:31:32;;;;;;;;;;;30.30;68.80;;;;;;5093893;28;19931;-71
2022/06/19 09:34:01;;;;;;;;;;;30.20;69.90;;;;;;5112288;28;20390;-71
2022/06/19 09:36:32;;;;;;;;;;;30.20;69.20;;;;;;5112386;28;19920;-71
2022/06/19 09:39:10;;;;;;;;;;;30.00;70.10;;;;;;5112343;28;20010;-71
2022/06/19 09:41:46;;;;;;;;;;;30.00;69.20;;;;;;5111858;28;19973;-71
2022/06/19 09:44:11;;;;;;;;;;;29.90;69.90;;;;;;5112186;28;19961;-72
2022/06/19 09:46:42;;;;;;;;;;;29.90;70.30;;;;;;5112090;28;19916;-71
2022/06/19 09:49:30;;;;;;;;;;;30.10;70.60;;;;;;5112405;28;19915;-71
2022/06/19 09:51:56;;;;;;;;;;;30.40;69.10;;;;;;5101126;28;19916;-73
2022/06/19 09:54:42;;;;;;;;;;;30.20;69.50;;;;;;5112271;28;20271;-73
2022/06/19 09:57:10;;;;;;;;;;;30.20;68.60;;;;;;5111982;28;20442;-71
2022/06/19 09:59:42;;;;;;;;;;;30.60;68.90;;;;;;5112106;28;20354;-71
2022/06/19 10:02:21;;;;;;;;;;;29.90;70.00;;;;;;5112015;28;20325;-72
2022/06/19 10:04:54;;;;;;;;;;;29.90;68.40;;;;;;5112259;28;20313;-72
2022/06/19 10:07:29;;;;;;;;;;;30.10;69.00;;;;;;5112193;28;20401;-73
2022/06/19 10:10:17;;;;;;;;;;;30.20;66.80;;;;;;5111786;28;19915;-73
2022/06/19 10:12:46;;;;;;;;;;;30.40;68.10;;;;;;5111740;28;20375;-72
2022/06/19 10:15:19;;;;;;;;;;;30.80;66.00;;;;;;5093613;28;20286;-73
2022/06/19 10:17:48;;;;;;;;;;;31.00;67.10;;;;;;5111793;28;19935;-73
2022/06/19 10:20:18;;;;;;;;;;;31.20;66.30;;;;;;5093685;28;19916;-73
2022/06/19 10:22:52;;;;;;;;;;;31.10;65.10;;;;;;5111983;28;20007;-72
2022/06/19 10:25:27;;;;;;;;;;;31.00;66.30;;;;;;5112146;28;19916;-73
2022/06/19 10:27:52;;;;;;;;;;;31.30;66.30;;;;;;5111708;28;19912;-72
2022/06/19 10:30:22;;;;;;;;;;;31.60;65.50;;;;;;5093294;28;20343;-72
2022/06/19 10:33:05;;;;;;;;;;;31.80;66.00;;;;;;5111475;28;19992;-72
2022/06/19 10:35:31;;;;;;;;;;;31.80;64.90;;;;;;5112107;28;20014;-73
2022/06/19 10:38:07;;;;;;;;;;;31.90;64.60;;;;;;5111571;28;20002;-73
2022/06/19 10:40:42;;;;;;;;;;;31.80;64.00;;;;;;5112048;28;19968;-73
2022/06/19 10:43:26;;;;;;;;;;;32.00;64.40;;;;;;5093294;28;20313;-72
2022/06/19 10:45:54;;;;;;;;;;;32.20;64.40;;;;;;5112202;28;19965;-72
2022/06/19 10:48:25;;;;;;;;;;;32.40;63.10;;;;;;5111483;28;19912;-72
2022/06/19 10:50:53;;;;;;;;;;;32.20;63.60;;;;;;5093484;28;20367;-72
2022/06/19 10:53:28;;;;;;;;;;;32.00;63.30;;;;;;5114423;28;19988;-72
2022/06/19 10:55:56;;;;;;;;;;;31.70;63.80;;;;;;5115600;28;19912;-72
2022/06/19 10:58:23;;;;;;;;;;;31.70;64.20;;;;;;5115672;28;19912;-72
2022/06/19 11:00:50;;;;;;;;;;;31.80;64.20;;;;;;5115881;28;20002;-72
2022/06/19 11:06:14;;;;;;;;;;;32.40;63.70;;;;;;5115509;28;19966;-71
2022/06/19 11:08:42;;;;;;;;;;;32.40;63.50;;;;;;5115456;28;19915;-73
2022/06/19 11:11:07;;;;;;;;;;;32.30;63.50;;;;;;5115355;28;19989;-72
2022/06/19 11:13:59;;;;;;;;;;;32.50;62.70;;;;;;5096979;28;20375;-71
2022/06/19 11:16:25;;;;;;;;;;;32.10;63.40;;;;;;5083564;28;19924;-73
2022/06/19 11:18:54;;;;;;;;;;;32.10;63.50;;;;;;5115190;28;19908;-72
2022/06/19 11:21:22;;;;;;;;;;;32.30;63.30;;;;;;5115182;28;19945;-72
2022/06/19 11:23:48;;;;;;;;;;;32.50;63.00;;;;;;5115041;28;19911;-72
2022/06/19 11:26:17;;;;;;;;;;;32.50;62.30;;;;;;5114916;28;20367;-72
2022/06/19 11:28:42;;;;;;;;;;;32.70;62.70;;;;;;5096368;28;19954;-71
2022/06/19 11:31:13;;;;;;;;;;;32.90;62.10;;;;;;5114533;28;20066;-72
2022/06/19 11:33:40;;;;;;;;;;;32.90;61.50;;;;;;5114697;28;19914;-71
2022/06/19 11:36:08;;;;;;;;;;;32.70;61.40;;;;;;5096400;28;20378;-72
2022/06/19 11:38:49;;;;;;;;;;;32.20;61.90;;;;;;5114865;28;19943;-71
2022/06/19 11:41:35;;;;;;;;;;;32.20;63.00;;;;;;5114744;28;19920;-72
2022/06/19 11:44:03;;;;;;;;;;;32.40;63.50;;;;;;5114079;28;19912;-71
2022/06/19 11:46:29;;;;;;;;;;;32.60;61.60;;;;;;5114547;28;20403;-71
2022/06/19 11:48:54;;;;;;;;;;;32.20;62.70;;;;;;5114213;28;19920;-71
2022/06/19 11:51:21;;;;;;;;;;;32.10;63.70;;;;;;5114745;28;19915;-72
2022/06/19 11:53:53;;;;;;;;;;;32.20;63.20;;;;;;5114091;28;20050;-71
2022/06/19 11:56:31;;;;;;;;;;;32.30;62.10;;;;;;5114210;28;19911;-72
2022/06/19 11:58:57;;;;;;;;;;;31.90;62.00;;;;;;5095682;28;19916;-72
2022/06/19 12:01:33;;;;;;;;;;;31.40;63.30;;;;;;5114229;28;20015;-72
2022/06/19 12:04:00;;;;;;;;;;;31.20;63.40;;;;;;5113719;28;19919;-72
2022/06/19 12:06:38;;;;;;;;;;;31.00;63.90;;;;;;5114301;28;20403;-71
2022/06/19 12:09:04;;;;;;;;;;;30.70;63.90;;;;;;5113979;28;19965;-71
2022/06/19 12:11:38;;;;;;;;;;;30.70;65.00;;;;;;5114110;28;20434;-72
2022/06/19 12:14:08;;;;;;;;;;;31.00;65.30;;;;;;5095583;28;19912;-72
2022/06/19 12:16:34;;;;;;;;;;;31.20;63.90;;;;;;5113800;28;20082;-72
2022/06/19 12:19:13;;;;;;;;;;;31.20;63.70;;;;;;5113813;28;19947;-71
2022/06/19 12:21:43;;;;;;;;;;;31.10;64.90;;;;;;5113894;28;20229;-72
2022/06/19 12:24:17;;;;;;;;;;;31.30;64.40;;;;;;5113877;28;19961;-71
2022/06/19 12:26:52;;;;;;;;;;;31.30;63.80;;;;;;5113674;28;19919;-72
2022/06/19 12:29:27;;;;;;;;;;;31.20;64.40;;;;;;5113507;28;19915;-72
2022/06/19 12:31:55;;;;;;;;;;;31.10;64.30;;;;;;5113626;28;19934;-73
2022/06/19 12:34:21;;;;;;;;;;;30.90;64.20;;;;;;5113361;28;20437;-72
2022/06/19 12:36:47;;;;;;;;;;;30.70;64.90;;;;;;5113503;28;20342;-73
2022/06/19 12:39:20;;;;;;;;;;;30.50;64.80;;;;;;5113547;28;19912;-72
2022/06/19 12:41:55;;;;;;;;;;;30.50;65.70;;;;;;5095008;28;20291;-72
2022/06/19 12:44:20;;;;;;;;;;;30.30;65.30;;;;;;5113644;28;20350;-72
2022/06/19 12:47:03;;;;;;;;;;;30.20;66.20;;;;;;5113389;28;20049;-72
2022/06/19 12:49:34;;;;;;;;;;;30.10;65.90;;;;;;5113427;28;20511;-72
2022/06/19 12:52:03;;;;;;;;;;;30.10;66.30;;;;;;5113279;28;19930;-72
2022/06/19 12:54:48;;;;;;;;;;;30.10;66.00;;;;;;5113107;28;20002;-72
2022/06/19 12:57:28;;;;;;;;;;;30.10;67.00;;;;;;5113187;28;19919;-72
2022/06/19 13:00:12;;;;;;;;;;;30.10;66.10;;;;;;5113197;28;19989;-72
2022/06/19 13:02:44;;;;;;;;;;;29.90;66.80;;;;;;5112972;28;20371;-72
2022/06/19 13:05:09;;;;;;;;;;;29.80;66.70;;;;;;5112933;28;19916;-72
2022/06/19 13:07:38;;;;;;;;;;;29.60;67.40;;;;;;5112973;28;20050;-71
2022/06/19 13:10:16;;;;;;;;;;;29.60;68.10;;;;;;5112798;28;20327;-71
2022/06/19 13:12:54;;;;;;;;;;;29.60;67.60;;;;;;5112886;28;20383;-71
2022/06/19 13:15:22;;;;;;;;;;;29.60;67.90;;;;;;5112504;28;20356;-72
2022/06/19 13:17:57;;;;;;;;;;;29.50;67.00;;;;;;5112711;28;20294;-72
2022/06/19 13:20:41;;;;;;;;;;;29.40;67.70;;;;;;5112620;28;19969;-71
2022/06/19 13:23:19;;;;;;;;;;;29.30;68.40;;;;;;5113443;28;20291;-72
2022/06/19 13:25:48;;;;;;;;;;;29.40;68.50;;;;;;5112975;28;20002;-71
2022/06/19 13:28:37;;;;;;;;;;;29.50;68.00;;;;;;5112551;28;19916;-72
2022/06/19 13:31:08;;;;;;;;;;;29.40;67.10;;;;;;5112296;28;19927;-71
2022/06/19 13:33:36;;;;;;;;;;;29.30;67.40;;;;;;5112367;28;19908;-71
2022/06/19 13:36:09;;;;;;;;;;;29.30;67.70;;;;;;5112418;28;19931;-71
2022/06/19 13:38:41;;;;;;;;;;;29.10;67.60;;;;;;5112145;28;19960;-71
2022/06/19 13:41:13;;;;;;;;;;;29.00;68.00;;;;;;5112148;28;20325;-71
2022/06/19 13:43:58;;;;;;;;;;;29.00;68.20;;;;;;5112223;28;19911;-71
2022/06/19 13:46:36;;;;;;;;;;;28.90;68.40;;;;;;5093891;28;20313;-71
2022/06/19 13:49:14;;;;;;;;;;;28.90;68.30;;;;;;5093794;28;20401;-71
2022/06/19 13:52:01;;;;;;;;;;;28.80;69.30;;;;;;5112116;28;20360;-71
2022/06/19 13:54:32;;;;;;;;;;;28.80;68.60;;;;;;5112106;28;19912;-71
2022/06/19 13:57:18;;;;;;;;;;;28.70;69.10;;;;;;5112266;28;19916;-71
2022/06/19 13:59:46;;;;;;;;;;;28.70;69.40;;;;;;5112332;28;19912;-72
2022/06/19 14:02:30;;;;;;;;;;;28.80;69.70;;;;;;5112014;28;19912;-71
2022/06/19 14:04:59;;;;;;;;;;;28.80;68.70;;;;;;5111766;28;19912;-71
2022/06/19 14:07:37;;;;;;;;;;;28.80;68.90;;;;;;5093590;28;20378;-72
2022/06/19 14:10:22;;;;;;;;;;;28.80;69.10;;;;;;5111959;28;19912;-71
2022/06/19 14:12:52;;;;;;;;;;;28.80;69.20;;;;;;5111757;28;19958;-71
2022/06/19 14:15:25;;;;;;;;;;;28.80;69.70;;;;;;5111684;28;20407;-71
2022/06/19 14:18:09;;;;;;;;;;;28.80;69.70;;;;;;5111670;28;20363;-71
2022/06/19 14:20:48;;;;;;;;;;;28.80;70.40;;;;;;5112086;28;19912;-71
2022/06/19 14:23:25;;;;;;;;;;;28.90;69.90;;;;;;5111800;28;19961;-71
2022/06/19 14:25:54;;;;;;;;;;;28.80;69.70;;;;;;5112507;28;19916;-72
2022/06/19 14:28:26;;;;;;;;;;;28.80;70.90;;;;;;5115933;28;19919;-71
2022/06/19 14:30:53;;;;;;;;;;;28.80;70.00;;;;;;5115428;28;19972;-72
2022/06/19 14:33:33;;;;;;;;;;;28.70;70.00;;;;;;5097541;28;19982;-72
2022/06/19 14:36:03;;;;;;;;;;;28.70;70.00;;;;;;5097804;28;19918;-71
2022/06/19 14:38:34;;;;;;;;;;;28.60;70.60;;;;;;5115789;28;19934;-72
2022/06/19 14:41:04;;;;;;;;;;;28.60;70.40;;;;;;5116182;28;20377;-72
2022/06/19 14:43:33;;;;;;;;;;;28.60;71.10;;;;;;5115791;28;20364;-71